Terminal Aerodrome Forecast
Issued by NWS Cleveland, OH

Home | Current Version | Previous Version | Graphics & Text | Print | Product List | Glossary On
Versions: 1 2 3 4 5 6 7 8 9 10 11 12 13 14 15 16
000
FTUS41 KCLE 222351 AAA
TAFERI
TAF AMD
KERI 222351Z 2300/2324 19008KT P6SM SCT045 BKN120
     FM230800 20013G20KT P6SM BKN045 OVC060
      TEMPO 2309/2312 5SM -SHRA OVC025
     FM231200 20015G22KT 6SM -SHRA VCTS BKN025CB OVC045
     FM231400 22015G22KT 5SM -SHRA VCTS BKN015CB OVC025
     FM232300 25010KT P6SM BKN015 OVC025=

USA.gov is the U.S. government's official web portal to all federal, state and local government web resources and services.